Weather at Central Vermont Medical Center Heliport

Public forecast

Using degrees Fahrenheit for public forecast. Weather courtesy of forecast.io.

Closest aviation weather report (METAR) to Central Vermont Medical Center Heliport

Closest report is Edward F Knapp State Airport, 1.0 nm (1.8 km) S.

2024/07/13 18:51 (retrieved 19 minutes ago)

KMPV 131851Z AUTO 29006KT 7SM -RA FEW070 OVC100 23/20 A3015 RMK AO2 RAB34 SLP205 P0001 T02280200

Closest aviation forecast (TAF) to Central Vermont Medical Center Heliport

Closest forecast is Edward F Knapp State Airport, 1.0 nm (1.8 km) S.

2024/07/13 18:24 (retrieved 46 minutes ago)

TAF KMPV 131720Z 1318/1418 VRB06KT P6SM VCSH BKN050 FM132200 32005KT P6SM SCT050 FM140300 00000KT P6SM SKC FM140500 00000KT 1/4SM FG VV001 FM141200 00000KT P6SM FEW001 FM141600 30005KT P6SM FEW060